sensor_id;sensor_type;location;lat;lon;timestamp;P1;durP1;ratioP1;P2;durP2;ratioP2
20653;SDS011;21083;50.898;4.902;2022-09-21T00:01:25;13.10;;;6.22;;
20653;SDS011;21083;50.898;4.902;2022-09-21T00:03:55;14.27;;;5.25;;
20653;SDS011;21083;50.898;4.902;2022-09-21T00:06:24;13.82;;;4.50;;
20653;SDS011;21083;50.898;4.902;2022-09-21T00:08:52;9.90;;;3.90;;
20653;SDS011;21083;50.898;4.902;2022-09-21T00:11:21;7.75;;;2.80;;
20653;SDS011;21083;50.898;4.902;2022-09-21T00:13:51;6.53;;;2.28;;
20653;SDS011;21083;50.898;4.902;2022-09-21T00:16:19;9.13;;;3.65;;
20653;SDS011;21083;50.898;4.902;2022-09-21T00:18:48;15.45;;;4.72;;
20653;SDS011;21083;50.898;4.902;2022-09-21T00:21:15;10.07;;;4.40;;
20653;SDS011;21083;50.898;4.902;2022-09-21T00:23:43;10.40;;;4.55;;
20653;SDS011;21083;50.898;4.902;2022-09-21T00:26:11;9.35;;;4.35;;
20653;SDS011;21083;50.898;4.902;2022-09-21T00:28:40;11.82;;;5.60;;
20653;SDS011;21083;50.898;4.902;2022-09-21T00:31:09;14.25;;;5.97;;
20653;SDS011;21083;50.898;4.902;2022-09-21T00:33:38;13.85;;;5.95;;
20653;SDS011;21083;50.898;4.902;2022-09-21T00:36:09;21.15;;;6.00;;
20653;SDS011;21083;50.898;4.902;2022-09-21T00:38:37;13.98;;;6.10;;
20653;SDS011;21083;50.898;4.902;2022-09-21T00:41:06;12.05;;;5.53;;
20653;SDS011;21083;50.898;4.902;2022-09-21T00:43:35;13.05;;;5.57;;
20653;SDS011;21083;50.898;4.902;2022-09-21T00:46:05;11.88;;;4.40;;
20653;SDS011;21083;50.898;4.902;2022-09-21T00:48:39;12.05;;;5.25;;
20653;SDS011;21083;50.898;4.902;2022-09-21T00:51:08;15.52;;;6.30;;
20653;SDS011;21083;50.898;4.902;2022-09-21T00:53:35;12.15;;;5.57;;
20653;SDS011;21083;50.898;4.902;2022-09-21T00:56:04;13.68;;;5.20;;
20653;SDS011;21083;50.898;4.902;2022-09-21T00:58:33;11.93;;;5.78;;
20653;SDS011;21083;50.898;4.902;2022-09-21T01:01:04;15.90;;;6.05;;
20653;SDS011;21083;50.898;4.902;2022-09-21T01:03:32;11.57;;;5.85;;
20653;SDS011;21083;50.898;4.902;2022-09-21T01:05:59;13.52;;;6.07;;
20653;SDS011;21083;50.898;4.902;2022-09-21T01:08:27;14.63;;;5.47;;
20653;SDS011;21083;50.898;4.902;2022-09-21T01:11:09;14.63;;;5.65;;
20653;SDS011;21083;50.898;4.902;2022-09-21T01:13:58;13.85;;;5.57;;
20653;SDS011;21083;50.898;4.902;2022-09-21T01:16:40;10.02;;;3.55;;
20653;SDS011;21083;50.898;4.902;2022-09-21T01:19:20;8.88;;;4.03;;
20653;SDS011;21083;50.898;4.902;2022-09-21T01:22:04;9.60;;;4.20;;
20653;SDS011;21083;50.898;4.902;2022-09-21T01:24:51;8.75;;;4.00;;
20653;SDS011;21083;50.898;4.902;2022-09-21T01:30:29;10.18;;;4.60;;
20653;SDS011;21083;50.898;4.902;2022-09-21T01:33:02;9.82;;;5.30;;
20653;SDS011;21083;50.898;4.902;2022-09-21T01:35:34;14.57;;;5.60;;
20653;SDS011;21083;50.898;4.902;2022-09-21T01:38:05;16.65;;;5.80;;
20653;SDS011;21083;50.898;4.902;2022-09-21T01:40:35;16.83;;;6.30;;
20653;SDS011;21083;50.898;4.902;2022-09-21T01:43:07;10.93;;;5.72;;
20653;SDS011;21083;50.898;4.902;2022-09-21T01:45:39;13.02;;;5.68;;
20653;SDS011;21083;50.898;4.902;2022-09-21T01:48:09;12.07;;;4.95;;
20653;SDS011;21083;50.898;4.902;2022-09-21T01:50:40;13.82;;;4.78;;
20653;SDS011;21083;50.898;4.902;2022-09-21T01:53:12;11.77;;;5.57;;
20653;SDS011;21083;50.898;4.902;2022-09-21T01:55:45;19.65;;;6.07;;
20653;SDS011;21083;50.898;4.902;2022-09-21T01:58:17;41.17;;;5.82;;
20653;SDS011;21083;50.898;4.902;2022-09-21T02:00:54;57.85;;;5.90;;
20653;SDS011;21083;50.898;4.902;2022-09-21T02:03:24;14.15;;;4.95;;
20653;SDS011;21083;50.898;4.902;2022-09-21T02:05:55;29.98;;;5.38;;
20653;SDS011;21083;50.898;4.902;2022-09-21T02:08:23;10.82;;;5.28;;
20653;SDS011;21083;50.898;4.902;2022-09-21T02:10:52;12.07;;;4.28;;
20653;SDS011;21083;50.898;4.902;2022-09-21T02:13:20;11.05;;;4.28;;
20653;SDS011;21083;50.898;4.902;2022-09-21T02:18:57;9.25;;;4.85;;
20653;SDS011;21083;50.898;4.902;2022-09-21T02:21:37;13.30;;;5.10;;
20653;SDS011;21083;50.898;4.902;2022-09-21T02:24:17;13.63;;;5.93;;
20653;SDS011;21083;50.898;4.902;2022-09-21T02:26:52;10.43;;;5.07;;
20653;SDS011;21083;50.898;4.902;2022-09-21T02:29:26;9.65;;;4.93;;
20653;SDS011;21083;50.898;4.902;2022-09-21T02:32:01;9.95;;;4.82;;
20653;SDS011;21083;50.898;4.902;2022-09-21T02:34:33;9.05;;;4.60;;
20653;SDS011;21083;50.898;4.902;2022-09-21T02:37:05;10.07;;;5.38;;
20653;SDS011;21083;50.898;4.902;2022-09-21T02:39:37;9.13;;;4.68;;
20653;SDS011;21083;50.898;4.902;2022-09-21T02:42:08;9.30;;;4.57;;
20653;SDS011;21083;50.898;4.902;2022-09-21T02:44:39;8.50;;;4.15;;
20653;SDS011;21083;50.898;4.902;2022-09-21T02:47:13;11.52;;;4.40;;
20653;SDS011;21083;50.898;4.902;2022-09-21T02:49:45;10.75;;;5.00;;
20653;SDS011;21083;50.898;4.902;2022-09-21T02:52:16;14.05;;;6.78;;
20653;SDS011;21083;50.898;4.902;2022-09-21T02:54:45;10.68;;;5.45;;
20653;SDS011;21083;50.898;4.902;2022-09-21T02:57:15;13.48;;;6.95;;
20653;SDS011;21083;50.898;4.902;2022-09-21T02:59:44;16.15;;;7.07;;
20653;SDS011;21083;50.898;4.902;2022-09-21T03:02:13;12.82;;;6.72;;
20653;SDS011;21083;50.898;4.902;2022-09-21T03:04:40;14.80;;;7.20;;
20653;SDS011;21083;50.898;4.902;2022-09-21T03:07:11;14.60;;;7.30;;
20653;SDS011;21083;50.898;4.902;2022-09-21T03:09:38;16.35;;;7.57;;
20653;SDS011;21083;50.898;4.902;2022-09-21T03:12:05;14.77;;;6.82;;
20653;SDS011;21083;50.898;4.902;2022-09-21T03:14:32;12.90;;;5.93;;
20653;SDS011;21083;50.898;4.902;2022-09-21T03:16:59;12.68;;;6.22;;
20653;SDS011;21083;50.898;4.902;2022-09-21T03:19:27;12.05;;;5.25;;
20653;SDS011;21083;50.898;4.902;2022-09-21T03:21:55;13.52;;;5.93;;
20653;SDS011;21083;50.898;4.902;2022-09-21T03:24:24;12.02;;;5.15;;
20653;SDS011;21083;50.898;4.902;2022-09-21T03:27:08;9.10;;;4.80;;
20653;SDS011;21083;50.898;4.902;2022-09-21T03:29:35;9.45;;;5.03;;
20653;SDS011;21083;50.898;4.902;2022-09-21T03:32:02;16.02;;;5.35;;
20653;SDS011;21083;50.898;4.902;2022-09-21T03:34:30;11.05;;;5.00;;
20653;SDS011;21083;50.898;4.902;2022-09-21T03:36:58;10.55;;;4.88;;
20653;SDS011;21083;50.898;4.902;2022-09-21T03:39:25;8.18;;;3.78;;
20653;SDS011;21083;50.898;4.902;2022-09-21T03:41:52;10.63;;;4.18;;
20653;SDS011;21083;50.898;4.902;2022-09-21T03:44:20;10.15;;;3.90;;
20653;SDS011;21083;50.898;4.902;2022-09-21T03:46:47;10.20;;;4.50;;
20653;SDS011;21083;50.898;4.902;2022-09-21T03:49:14;11.52;;;4.75;;
20653;SDS011;21083;50.898;4.902;2022-09-21T03:51:43;13.15;;;5.70;;
20653;SDS011;21083;50.898;4.902;2022-09-21T03:54:10;15.75;;;7.22;;
20653;SDS011;21083;50.898;4.902;2022-09-21T03:56:37;16.38;;;7.78;;
20653;SDS011;21083;50.898;4.902;2022-09-21T03:59:03;21.90;;;8.60;;
20653;SDS011;21083;50.898;4.902;2022-09-21T04:01:31;18.02;;;9.02;;
20653;SDS011;21083;50.898;4.902;2022-09-21T04:03:58;22.27;;;8.65;;
20653;SDS011;21083;50.898;4.902;2022-09-21T04:06:25;18.20;;;7.53;;
20653;SDS011;21083;50.898;4.902;2022-09-21T04:08:53;19.33;;;7.95;;
20653;SDS011;21083;50.898;4.902;2022-09-21T04:11:21;19.50;;;8.60;;
20653;SDS011;21083;50.898;4.902;2022-09-21T04:13:48;17.33;;;8.35;;
20653;SDS011;21083;50.898;4.902;2022-09-21T04:16:21;18.70;;;9.05;;
20653;SDS011;21083;50.898;4.902;2022-09-21T04:18:48;17.52;;;9.18;;
20653;SDS011;21083;50.898;4.902;2022-09-21T04:21:15;19.60;;;9.90;;
20653;SDS011;21083;50.898;4.902;2022-09-21T04:23:42;22.23;;;10.40;;
20653;SDS011;21083;50.898;4.902;2022-09-21T04:26:19;18.92;;;10.48;;
20653;SDS011;21083;50.898;4.902;2022-09-21T04:28:47;15.75;;;8.45;;
20653;SDS011;21083;50.898;4.902;2022-09-21T04:31:14;18.17;;;9.07;;
20653;SDS011;21083;50.898;4.902;2022-09-21T04:33:42;18.88;;;8.63;;
20653;SDS011;21083;50.898;4.902;2022-09-21T04:36:09;15.13;;;9.05;;
20653;SDS011;21083;50.898;4.902;2022-09-21T04:38:36;18.13;;;7.97;;
20653;SDS011;21083;50.898;4.902;2022-09-21T04:41:04;14.95;;;7.70;;
20653;SDS011;21083;50.898;4.902;2022-09-21T04:43:33;13.90;;;7.07;;
20653;SDS011;21083;50.898;4.902;2022-09-21T04:46:03;13.30;;;6.00;;
20653;SDS011;21083;50.898;4.902;2022-09-21T04:48:31;12.85;;;5.75;;
20653;SDS011;21083;50.898;4.902;2022-09-21T04:50:58;11.45;;;5.22;;
20653;SDS011;21083;50.898;4.902;2022-09-21T04:53:25;13.10;;;5.57;;
20653;SDS011;21083;50.898;4.902;2022-09-21T04:55:51;15.55;;;6.53;;
20653;SDS011;21083;50.898;4.902;2022-09-21T04:58:19;15.77;;;6.40;;
20653;SDS011;21083;50.898;4.902;2022-09-21T05:00:48;16.05;;;6.78;;
20653;SDS011;21083;50.898;4.902;2022-09-21T05:03:16;16.80;;;7.05;;
20653;SDS011;21083;50.898;4.902;2022-09-21T05:05:45;16.83;;;7.28;;
20653;SDS011;21083;50.898;4.902;2022-09-21T05:08:13;15.27;;;6.93;;
20653;SDS011;21083;50.898;4.902;2022-09-21T05:10:39;13.43;;;6.97;;
20653;SDS011;21083;50.898;4.902;2022-09-21T05:13:06;14.93;;;7.38;;
20653;SDS011;21083;50.898;4.902;2022-09-21T05:15:32;18.38;;;7.40;;
20653;SDS011;21083;50.898;4.902;2022-09-21T05:18:01;15.73;;;7.18;;
20653;SDS011;21083;50.898;4.902;2022-09-21T05:20:28;14.93;;;6.78;;
20653;SDS011;21083;50.898;4.902;2022-09-21T05:22:54;18.42;;;8.07;;
20653;SDS011;21083;50.898;4.902;2022-09-21T05:25:25;16.95;;;7.75;;
20653;SDS011;21083;50.898;4.902;2022-09-21T05:27:52;13.50;;;7.45;;
20653;SDS011;21083;50.898;4.902;2022-09-21T05:30:20;14.88;;;7.30;;
20653;SDS011;21083;50.898;4.902;2022-09-21T05:32:48;13.50;;;6.40;;
20653;SDS011;21083;50.898;4.902;2022-09-21T05:35:25;10.27;;;5.18;;
20653;SDS011;21083;50.898;4.902;2022-09-21T05:38:02;8.77;;;4.40;;
20653;SDS011;21083;50.898;4.902;2022-09-21T05:40:33;15.27;;;5.55;;
20653;SDS011;21083;50.898;4.902;2022-09-21T05:43:01;17.45;;;5.82;;
20653;SDS011;21083;50.898;4.902;2022-09-21T05:45:28;14.02;;;5.97;;
20653;SDS011;21083;50.898;4.902;2022-09-21T05:47:58;13.95;;;6.28;;
20653;SDS011;21083;50.898;4.902;2022-09-21T05:50:46;13.48;;;5.53;;
20653;SDS011;21083;50.898;4.902;2022-09-21T05:53:23;12.52;;;5.80;;
20653;SDS011;21083;50.898;4.902;2022-09-21T05:56:02;47.15;;;20.58;;
20653;SDS011;21083;50.898;4.902;2022-09-21T05:58:36;72.93;;;35.30;;
20653;SDS011;21083;50.898;4.902;2022-09-21T06:01:12;80.40;;;37.05;;
20653;SDS011;21083;50.898;4.902;2022-09-21T06:03:46;72.70;;;32.15;;
20653;SDS011;21083;50.898;4.902;2022-09-21T06:06:16;51.55;;;24.35;;
20653;SDS011;21083;50.898;4.902;2022-09-21T06:08:43;44.30;;;20.48;;
20653;SDS011;21083;50.898;4.902;2022-09-21T06:11:10;26.65;;;11.90;;
20653;SDS011;21083;50.898;4.902;2022-09-21T06:13:38;26.77;;;12.20;;
20653;SDS011;21083;50.898;4.902;2022-09-21T06:16:05;18.25;;;10.60;;
20653;SDS011;21083;50.898;4.902;2022-09-21T06:18:35;23.23;;;10.18;;
20653;SDS011;21083;50.898;4.902;2022-09-21T06:21:02;19.05;;;9.55;;
20653;SDS011;21083;50.898;4.902;2022-09-21T06:23:31;23.92;;;9.88;;
20653;SDS011;21083;50.898;4.902;2022-09-21T06:25:58;18.95;;;9.57;;
20653;SDS011;21083;50.898;4.902;2022-09-21T06:28:25;21.88;;;9.50;;
20653;SDS011;21083;50.898;4.902;2022-09-21T06:30:52;17.48;;;9.20;;
20653;SDS011;21083;50.898;4.902;2022-09-21T06:33:20;17.45;;;8.82;;
20653;SDS011;21083;50.898;4.902;2022-09-21T06:35:50;21.30;;;9.23;;
20653;SDS011;21083;50.898;4.902;2022-09-21T06:38:19;16.20;;;8.52;;
20653;SDS011;21083;50.898;4.902;2022-09-21T06:40:48;15.27;;;7.78;;
20653;SDS011;21083;50.898;4.902;2022-09-21T06:43:16;14.20;;;7.28;;
20653;SDS011;21083;50.898;4.902;2022-09-21T06:45:44;14.63;;;7.25;;
20653;SDS011;21083;50.898;4.902;2022-09-21T06:48:18;15.35;;;8.02;;
20653;SDS011;21083;50.898;4.902;2022-09-21T06:50:45;13.20;;;7.55;;
20653;SDS011;21083;50.898;4.902;2022-09-21T06:53:12;20.00;;;8.55;;
20653;SDS011;21083;50.898;4.902;2022-09-21T06:55:40;19.15;;;9.52;;
20653;SDS011;21083;50.898;4.902;2022-09-21T06:58:08;13.90;;;8.02;;
20653;SDS011;21083;50.898;4.902;2022-09-21T07:00:35;17.08;;;9.05;;
20653;SDS011;21083;50.898;4.902;2022-09-21T07:03:02;17.48;;;9.80;;
20653;SDS011;21083;50.898;4.902;2022-09-21T07:05:29;16.02;;;9.95;;
20653;SDS011;21083;50.898;4.902;2022-09-21T07:07:57;18.38;;;10.50;;
20653;SDS011;21083;50.898;4.902;2022-09-21T07:10:24;17.85;;;9.90;;
20653;SDS011;21083;50.898;4.902;2022-09-21T07:12:51;18.20;;;10.60;;
20653;SDS011;21083;50.898;4.902;2022-09-21T07:15:20;19.13;;;10.52;;
20653;SDS011;21083;50.898;4.902;2022-09-21T07:17:47;14.98;;;8.90;;
20653;SDS011;21083;50.898;4.902;2022-09-21T07:20:14;14.30;;;8.57;;
20653;SDS011;21083;50.898;4.902;2022-09-21T07:22:41;18.55;;;10.30;;
20653;SDS011;21083;50.898;4.902;2022-09-21T07:25:08;15.85;;;9.85;;
20653;SDS011;21083;50.898;4.902;2022-09-21T07:27:35;17.00;;;9.50;;
20653;SDS011;21083;50.898;4.902;2022-09-21T07:30:03;22.65;;;10.82;;
20653;SDS011;21083;50.898;4.902;2022-09-21T07:32:32;19.55;;;9.90;;
20653;SDS011;21083;50.898;4.902;2022-09-21T07:34:59;19.17;;;10.15;;
20653;SDS011;21083;50.898;4.902;2022-09-21T07:37:26;18.33;;;9.82;;
20653;SDS011;21083;50.898;4.902;2022-09-21T07:39:54;17.67;;;9.10;;
20653;SDS011;21083;50.898;4.902;2022-09-21T07:42:20;24.25;;;9.77;;
20653;SDS011;21083;50.898;4.902;2022-09-21T07:44:50;20.98;;;9.48;;
20653;SDS011;21083;50.898;4.902;2022-09-21T07:47:18;15.15;;;8.52;;
20653;SDS011;21083;50.898;4.902;2022-09-21T07:49:46;17.27;;;9.27;;
20653;SDS011;21083;50.898;4.902;2022-09-21T07:52:13;16.80;;;8.48;;
20653;SDS011;21083;50.898;4.902;2022-09-21T07:54:40;13.70;;;6.15;;
20653;SDS011;21083;50.898;4.902;2022-09-21T07:57:07;19.45;;;9.65;;
20653;SDS011;21083;50.898;4.902;2022-09-21T07:59:51;21.42;;;9.05;;
20653;SDS011;21083;50.898;4.902;2022-09-21T08:02:20;17.13;;;8.68;;
20653;SDS011;21083;50.898;4.902;2022-09-21T08:04:48;19.80;;;8.77;;
20653;SDS011;21083;50.898;4.902;2022-09-21T08:07:16;18.77;;;7.18;;
20653;SDS011;21083;50.898;4.902;2022-09-21T08:09:43;19.48;;;9.32;;
20653;SDS011;21083;50.898;4.902;2022-09-21T08:12:13;16.75;;;8.77;;
20653;SDS011;21083;50.898;4.902;2022-09-21T08:14:41;21.30;;;6.55;;
20653;SDS011;21083;50.898;4.902;2022-09-21T08:17:08;20.10;;;9.77;;
20653;SDS011;21083;50.898;4.902;2022-09-21T08:19:35;18.58;;;9.10;;
20653;SDS011;21083;50.898;4.902;2022-09-21T08:22:03;16.95;;;8.43;;
20653;SDS011;21083;50.898;4.902;2022-09-21T08:24:30;19.08;;;8.68;;
20653;SDS011;21083;50.898;4.902;2022-09-21T08:26:57;19.52;;;8.32;;
20653;SDS011;21083;50.898;4.902;2022-09-21T08:29:24;17.02;;;8.98;;
20653;SDS011;21083;50.898;4.902;2022-09-21T08:31:51;17.40;;;8.07;;
20653;SDS011;21083;50.898;4.902;2022-09-21T08:34:18;16.05;;;7.55;;
20653;SDS011;21083;50.898;4.902;2022-09-21T08:36:47;19.35;;;7.95;;
20653;SDS011;21083;50.898;4.902;2022-09-21T08:39:15;16.23;;;9.23;;
20653;SDS011;21083;50.898;4.902;2022-09-21T08:41:46;16.52;;;8.07;;
20653;SDS011;21083;50.898;4.902;2022-09-21T08:44:26;17.58;;;8.23;;
20653;SDS011;21083;50.898;4.902;2022-09-21T08:47:00;16.45;;;7.65;;
20653;SDS011;21083;50.898;4.902;2022-09-21T08:49:29;16.50;;;8.05;;
20653;SDS011;21083;50.898;4.902;2022-09-21T08:51:59;18.10;;;8.45;;
20653;SDS011;21083;50.898;4.902;2022-09-21T08:54:33;15.70;;;8.18;;
20653;SDS011;21083;50.898;4.902;2022-09-21T08:57:04;15.02;;;7.78;;
20653;SDS011;21083;50.898;4.902;2022-09-21T08:59:34;20.65;;;7.75;;
20653;SDS011;21083;50.898;4.902;2022-09-21T09:02:04;19.63;;;8.05;;
20653;SDS011;21083;50.898;4.902;2022-09-21T09:04:49;15.75;;;8.02;;
20653;SDS011;21083;50.898;4.902;2022-09-21T09:07:28;16.92;;;6.78;;
20653;SDS011;21083;50.898;4.902;2022-09-21T09:10:13;22.92;;;7.07;;
20653;SDS011;21083;50.898;4.902;2022-09-21T09:12:51;14.43;;;6.95;;
20653;SDS011;21083;50.898;4.902;2022-09-21T09:15:33;17.30;;;6.53;;
20653;SDS011;21083;50.898;4.902;2022-09-21T09:18:13;13.52;;;5.88;;
20653;SDS011;21083;50.898;4.902;2022-09-21T09:20:48;12.95;;;5.72;;
20653;SDS011;21083;50.898;4.902;2022-09-21T09:23:22;15.75;;;5.80;;
20653;SDS011;21083;50.898;4.902;2022-09-21T09:25:55;14.73;;;4.40;;
20653;SDS011;21083;50.898;4.902;2022-09-21T09:28:28;12.77;;;5.18;;
20653;SDS011;21083;50.898;4.902;2022-09-21T09:30:59;11.43;;;4.80;;
20653;SDS011;21083;50.898;4.902;2022-09-21T09:33:42;12.38;;;5.00;;
20653;SDS011;21083;50.898;4.902;2022-09-21T09:36:13;12.35;;;4.60;;
20653;SDS011;21083;50.898;4.902;2022-09-21T09:38:41;12.70;;;5.28;;
20653;SDS011;21083;50.898;4.902;2022-09-21T09:41:21;14.98;;;5.95;;
20653;SDS011;21083;50.898;4.902;2022-09-21T09:44:25;14.13;;;5.30;;
20653;SDS011;21083;50.898;4.902;2022-09-21T09:47:05;14.32;;;4.85;;
20653;SDS011;21083;50.898;4.902;2022-09-21T09:49:45;12.73;;;4.78;;
20653;SDS011;21083;50.898;4.902;2022-09-21T09:52:22;14.35;;;4.88;;
20653;SDS011;21083;50.898;4.902;2022-09-21T09:54:49;16.95;;;5.03;;
20653;SDS011;21083;50.898;4.902;2022-09-21T09:57:18;11.18;;;4.32;;
20653;SDS011;21083;50.898;4.902;2022-09-21T09:59:52;13.55;;;4.65;;
20653;SDS011;21083;50.898;4.902;2022-09-21T10:02:22;12.63;;;4.10;;
20653;SDS011;21083;50.898;4.902;2022-09-21T10:04:54;15.00;;;3.88;;
20653;SDS011;21083;50.898;4.902;2022-09-21T10:07:37;11.38;;;3.55;;
20653;SDS011;21083;50.898;4.902;2022-09-21T10:13:11;11.85;;;2.75;;
20653;SDS011;21083;50.898;4.902;2022-09-21T10:15:42;13.23;;;3.78;;
20653;SDS011;21083;50.898;4.902;2022-09-21T10:18:14;7.78;;;3.47;;
20653;SDS011;21083;50.898;4.902;2022-09-21T10:20:54;12.98;;;3.40;;
20653;SDS011;21083;50.898;4.902;2022-09-21T10:23:24;8.48;;;2.83;;
20653;SDS011;21083;50.898;4.902;2022-09-21T10:25:55;10.30;;;2.33;;
20653;SDS011;21083;50.898;4.902;2022-09-21T10:28:27;10.88;;;2.97;;
20653;SDS011;21083;50.898;4.902;2022-09-21T10:31:08;9.30;;;2.50;;
20653;SDS011;21083;50.898;4.902;2022-09-21T10:33:46;8.18;;;2.53;;
20653;SDS011;21083;50.898;4.902;2022-09-21T10:36:26;9.00;;;2.20;;
20653;SDS011;21083;50.898;4.902;2022-09-21T10:38:55;5.45;;;1.85;;
20653;SDS011;21083;50.898;4.902;2022-09-21T10:41:35;9.35;;;2.28;;
20653;SDS011;21083;50.898;4.902;2022-09-21T10:44:04;6.85;;;1.52;;
20653;SDS011;21083;50.898;4.902;2022-09-21T10:46:40;7.03;;;1.55;;
20653;SDS011;21083;50.898;4.902;2022-09-21T10:49:11;5.00;;;1.27;;
20653;SDS011;21083;50.898;4.902;2022-09-21T10:51:45;7.28;;;2.00;;
20653;SDS011;21083;50.898;4.902;2022-09-21T10:54:16;5.40;;;1.65;;
20653;SDS011;21083;50.898;4.902;2022-09-21T10:56:51;5.85;;;1.20;;
20653;SDS011;21083;50.898;4.902;2022-09-21T10:59:22;9.43;;;1.25;;
20653;SDS011;21083;50.898;4.902;2022-09-21T11:01:51;8.18;;;1.30;;
20653;SDS011;21083;50.898;4.902;2022-09-21T11:04:22;6.70;;;1.50;;
20653;SDS011;21083;50.898;4.902;2022-09-21T11:07:01;3.97;;;1.40;;
20653;SDS011;21083;50.898;4.902;2022-09-21T11:09:36;7.75;;;1.48;;
20653;SDS011;21083;50.898;4.902;2022-09-21T11:12:11;7.97;;;1.75;;
20653;SDS011;21083;50.898;4.902;2022-09-21T11:15:02;7.80;;;2.10;;
20653;SDS011;21083;50.898;4.902;2022-09-21T11:17:38;7.90;;;1.30;;
20653;SDS011;21083;50.898;4.902;2022-09-21T11:20:13;7.97;;;1.10;;
20653;SDS011;21083;50.898;4.902;2022-09-21T11:22:50;4.05;;;1.13;;
20653;SDS011;21083;50.898;4.902;2022-09-21T11:25:27;6.45;;;1.30;;
20653;SDS011;21083;50.898;4.902;2022-09-21T11:28:03;7.32;;;1.40;;
20653;SDS011;21083;50.898;4.902;2022-09-21T11:30:42;4.53;;;0.85;;
20653;SDS011;21083;50.898;4.902;2022-09-21T11:33:30;7.85;;;1.30;;
20653;SDS011;21083;50.898;4.902;2022-09-21T11:36:06;8.55;;;1.33;;
20653;SDS011;21083;50.898;4.902;2022-09-21T11:38:44;3.75;;;1.02;;
20653;SDS011;21083;50.898;4.902;2022-09-21T11:41:31;4.20;;;0.90;;
20653;SDS011;21083;50.898;4.902;2022-09-21T11:44:16;5.43;;;1.23;;
20653;SDS011;21083;50.898;4.902;2022-09-21T11:46:53;4.10;;;0.90;;
20653;SDS011;21083;50.898;4.902;2022-09-21T11:49:42;5.78;;;1.00;;
20653;SDS011;21083;50.898;4.902;2022-09-21T11:52:32;8.18;;;1.10;;
20653;SDS011;21083;50.898;4.902;2022-09-21T11:58:19;7.75;;;1.20;;
20653;SDS011;21083;50.898;4.902;2022-09-21T12:00:56;7.13;;;1.25;;
20653;SDS011;21083;50.898;4.902;2022-09-21T12:03:39;5.68;;;1.00;;
20653;SDS011;21083;50.898;4.902;2022-09-21T12:06:16;3.75;;;0.70;;
20653;SDS011;21083;50.898;4.902;2022-09-21T12:08:59;6.10;;;0.90;;
20653;SDS011;21083;50.898;4.902;2022-09-21T12:11:45;5.88;;;1.05;;
20653;SDS011;21083;50.898;4.902;2022-09-21T12:14:19;6.15;;;0.73;;
20653;SDS011;21083;50.898;4.902;2022-09-21T12:16:59;3.88;;;0.90;;
20653;SDS011;21083;50.898;4.902;2022-09-21T12:19:35;4.60;;;0.80;;
20653;SDS011;21083;50.898;4.902;2022-09-21T12:22:08;1.52;;;0.70;;
20653;SDS011;21083;50.898;4.902;2022-09-21T12:24:38;7.63;;;0.88;;
20653;SDS011;21083;50.898;4.902;2022-09-21T12:27:20;5.45;;;1.10;;
20653;SDS011;21083;50.898;4.902;2022-09-21T12:29:54;6.20;;;1.00;;
20653;SDS011;21083;50.898;4.902;2022-09-21T12:32:24;3.22;;;0.70;;
20653;SDS011;21083;50.898;4.902;2022-09-21T12:35:01;8.40;;;0.80;;
20653;SDS011;21083;50.898;4.902;2022-09-21T12:37:32;6.28;;;0.70;;
20653;SDS011;21083;50.898;4.902;2022-09-21T12:40:05;5.05;;;0.70;;
20653;SDS011;21083;50.898;4.902;2022-09-21T12:42:43;2.70;;;0.63;;
20653;SDS011;21083;50.898;4.902;2022-09-21T12:45:14;4.15;;;0.70;;
20653;SDS011;21083;50.898;4.902;2022-09-21T12:47:47;5.93;;;1.05;;
20653;SDS011;21083;50.898;4.902;2022-09-21T12:50:24;4.25;;;0.98;;
20653;SDS011;21083;50.898;4.902;2022-09-21T12:52:52;6.38;;;0.90;;
20653;SDS011;21083;50.898;4.902;2022-09-21T12:55:32;4.25;;;0.77;;
20653;SDS011;21083;50.898;4.902;2022-09-21T12:58:11;7.28;;;1.00;;
20653;SDS011;21083;50.898;4.902;2022-09-21T13:00:51;5.18;;;1.15;;
20653;SDS011;21083;50.898;4.902;2022-09-21T13:03:30;6.57;;;0.95;;
20653;SDS011;21083;50.898;4.902;2022-09-21T13:06:10;3.30;;;0.68;;
20653;SDS011;21083;50.898;4.902;2022-09-21T13:08:53;8.40;;;1.00;;
20653;SDS011;21083;50.898;4.902;2022-09-21T13:11:22;3.63;;;0.80;;
20653;SDS011;21083;50.898;4.902;2022-09-21T13:13:50;6.88;;;1.08;;
20653;SDS011;21083;50.898;4.902;2022-09-21T13:16:23;4.90;;;0.80;;
20653;SDS011;21083;50.898;4.902;2022-09-21T13:18:53;3.53;;;0.80;;
20653;SDS011;21083;50.898;4.902;2022-09-21T13:21:25;7.03;;;0.95;;
20653;SDS011;21083;50.898;4.902;2022-09-21T13:23:54;5.00;;;0.90;;
20653;SDS011;21083;50.898;4.902;2022-09-21T13:26:30;3.83;;;0.85;;
20653;SDS011;21083;50.898;4.902;2022-09-21T13:31:54;6.45;;;0.77;;
20653;SDS011;21083;50.898;4.902;2022-09-21T13:34:29;6.50;;;0.93;;
20653;SDS011;21083;50.898;4.902;2022-09-21T13:37:24;7.10;;;0.88;;
20653;SDS011;21083;50.898;4.902;2022-09-21T13:43:14;4.38;;;0.90;;
20653;SDS011;21083;50.898;4.902;2022-09-21T13:45:55;2.72;;;0.70;;
20653;SDS011;21083;50.898;4.902;2022-09-21T13:48:25;3.33;;;0.65;;
20653;SDS011;21083;50.898;4.902;2022-09-21T13:50:58;5.10;;;1.00;;
20653;SDS011;21083;50.898;4.902;2022-09-21T13:53:34;8.63;;;0.90;;
20653;SDS011;21083;50.898;4.902;2022-09-21T13:56:06;4.93;;;0.90;;
20653;SDS011;21083;50.898;4.902;2022-09-21T13:58:39;7.72;;;0.80;;
20653;SDS011;21083;50.898;4.902;2022-09-21T14:01:12;5.80;;;1.00;;
20653;SDS011;21083;50.898;4.902;2022-09-21T14:03:42;6.53;;;1.23;;
20653;SDS011;21083;50.898;4.902;2022-09-21T14:06:12;8.00;;;1.00;;
20653;SDS011;21083;50.898;4.902;2022-09-21T14:08:46;6.35;;;1.25;;
20653;SDS011;21083;50.898;4.902;2022-09-21T14:11:19;5.28;;;0.85;;
20653;SDS011;21083;50.898;4.902;2022-09-21T14:13:58;3.88;;;0.93;;
20653;SDS011;21083;50.898;4.902;2022-09-21T14:16:48;4.28;;;0.88;;
20653;SDS011;21083;50.898;4.902;2022-09-21T14:22:36;5.60;;;1.13;;
20653;SDS011;21083;50.898;4.902;2022-09-21T14:25:21;3.38;;;0.70;;
20653;SDS011;21083;50.898;4.902;2022-09-21T14:27:50;5.68;;;1.08;;
20653;SDS011;21083;50.898;4.902;2022-09-21T14:30:18;4.13;;;1.00;;
20653;SDS011;21083;50.898;4.902;2022-09-21T14:32:48;10.50;;;1.98;;
20653;SDS011;21083;50.898;4.902;2022-09-21T14:35:21;7.85;;;1.17;;
20653;SDS011;21083;50.898;4.902;2022-09-21T14:37:49;7.03;;;1.70;;
20653;SDS011;21083;50.898;4.902;2022-09-21T14:40:22;8.68;;;1.45;;
20653;SDS011;21083;50.898;4.902;2022-09-21T14:42:50;5.80;;;1.15;;
20653;SDS011;21083;50.898;4.902;2022-09-21T14:45:25;8.15;;;1.67;;
20653;SDS011;21083;50.898;4.902;2022-09-21T14:48:03;5.80;;;1.27;;
20653;SDS011;21083;50.898;4.902;2022-09-21T14:50:37;5.65;;;1.30;;
20653;SDS011;21083;50.898;4.902;2022-09-21T14:53:16;6.05;;;1.20;;
20653;SDS011;21083;50.898;4.902;2022-09-21T14:58:57;9.35;;;1.52;;
20653;SDS011;21083;50.898;4.902;2022-09-21T15:01:39;6.38;;;1.48;;
20653;SDS011;21083;50.898;4.902;2022-09-21T15:04:24;7.30;;;1.25;;
20653;SDS011;21083;50.898;4.902;2022-09-21T15:06:59;6.43;;;1.58;;
20653;SDS011;21083;50.898;4.902;2022-09-21T15:09:55;6.75;;;1.42;;
20653;SDS011;21083;50.898;4.902;2022-09-21T15:12:57;5.75;;;1.13;;
20653;SDS011;21083;50.898;4.902;2022-09-21T15:15:32;7.28;;;1.85;;
20653;SDS011;21083;50.898;4.902;2022-09-21T15:18:11;5.18;;;1.48;;
20653;SDS011;21083;50.898;4.902;2022-09-21T15:20:42;8.35;;;1.15;;
20653;SDS011;21083;50.898;4.902;2022-09-21T15:23:15;7.00;;;1.23;;
20653;SDS011;21083;50.898;4.902;2022-09-21T15:25:50;5.10;;;1.40;;
20653;SDS011;21083;50.898;4.902;2022-09-21T15:28:24;5.35;;;1.10;;
20653;SDS011;21083;50.898;4.902;2022-09-21T15:30:55;5.63;;;1.55;;
20653;SDS011;21083;50.898;4.902;2022-09-21T15:33:23;3.70;;;0.93;;